OMFJ/FJR METAR and TAF weather

Enter ICAO airport designator
Station Type Date Time Source
OMFJ METAR 2019/05/26 01:00 UTC NOAA

OMFJ 260100Z 26003KT CAVOK 32/09 Q1005 RMK A2970


Station Type Date Time Source
OMFJ Decoded METAR 2019/05/26 01:00 UTC NOAA

Fujairah, United Arab Emirates (OMFJ) 25-06N 056-20E 28M
May 25, 2019 - 09:00 PM EDT / 2019.05.26 0100 UTC
Wind: from the W (260 degrees) at 3 MPH (3 KT):0
Visibility: greater than 7 mile(s):0
Temperature: 89 F (32 C)
Dew Point: 48 F (9 C)
Relative Humidity: 24%
Pressure (altimeter): 29.68 in. Hg (1005 hPa)
ob: OMFJ 260100Z 26003KT CAVOK 32/09 Q1005 RMK A2970
cycle: 1

Station Type Date Time Source
OMFJ TAF 2019/05/25 18:06 UTC NOAA

TAF TAF OMFJ 251700Z 2518/2624 VRB03KT 7000 NSC
BECMG 2519/2521 28008KT
BECMG 2604/2606 10008KT
BECMG 2614/2616 VRB03KT

Example: see airport list